LIPE

Bologna Guglielmo Marconi Airport

Bologna, Italy
TAF LIPE 210500Z 2106/2206 VRB05KT CAVOK TEMPO 2114/2118 04010KT
Issued Valid From Valid To
Aug-21 @ 05:00 UTC
(13 hours ago)
Aug-21 @ 06:00 UTC
(12 hours ago)
Aug-22 @ 06:00 UTC
(in 12 hours)
Aug-21 @ 06:00 to Aug-22 @ 06:00
TAF LIPE 210500Z 2106/2206 VRB05KT CAVOK
Wind Visibility Clouds Conditions
Variable at 5 knots 10,000+ meters
  • No significant clouds
Temporary Aug-21 @ 14:00 to Aug-21 @ 18:00
TEMPO 2114/2118 04010KT
Wind
40° at 10 knots
TAF LIPE 210500Z 2106/2206 VRB05KT CAVOK TEMPO 2114/2118 04010KT
Issued Aug-21 @ 05:00 UTC
(13 hours ago)
Valid From Aug-21 @ 06:00 UTC
(12 hours ago)
Valid To Aug-22 @ 06:00 UTC
(in 12 hours)
Aug-21 @ 06:00 - Aug-22 @ 06:00
Wind Visibility
Variable at 5 knots 10,000+ meters
Clouds
  • No significant clouds
Conditions
Temporary Aug-21 @ 14:00 - Aug-21 @ 18:00
Wind
40° at 10 knots